Accueil
METAR-TAF:

METAR-TAF

Aéroports :

Base aérienne de Lechfeld

Lechfeld, Allemagne

latitude: 48-11N, longitude: 010-52E, altitude: 555 m

Observation

Le bulletin a été fait il y a 1 heure et 8 minutes, à 14:20 UTC
Vent 6 kt de ouest
Température 20°C
Humidité 26%
Pression 1023 hPa
Visibilité 10 km ou plus
Quelques nuages à une hauteur de 6000 ft

METAR: ETSL 081420Z 28006KT 9999 FEW060 20/00 Q1023 BLU+BLU+

Heure: 17:28 (15:28 UTC)

Prévision

Le bulletin a été fait il y a 2 heures et 8 minutes, à 13:20 UTC
Prévision valable du 08 à 14 UTC au 08 à 23 UTC
Vent 5 kt de ouest
Visibilité 10 km ou plus
Quelques nuages à une hauteur de 7000 ft

TAF: ETSL 081320Z 0814/0823 27005KT 9999 NSW FEW070 BY ETGL

Observations et prévisions météorologiques de plus de 4000 aéroports (messages METAR et TAF).

Les stations disponibles sont représentées par des disques jaunes et rouges sur la carte.

Passer la souris dessus pour voir le nom de la station.

Cliquer dessus pour voir les observations et prévisions météorologiques.

Pour changer de carte: cliquez sur les boutons verts avec une croix noire pour zoomer, sur le bouton vert avec un tiret pour effectuer un zoom arrière, ou sur les flèches vertes pour les cartes adjacentes.


METAR-TAF: